createdAt,value
2023-05-07T00:01:22.382Z,101584.59
2023-05-07T00:03:50.775Z,101589.25
2023-05-07T00:06:19.158Z,101579.91
2023-05-07T00:08:47.364Z,101583.78
2023-05-07T00:11:15.771Z,101585.31
2023-05-07T00:13:44.056Z,101594.25
2023-05-07T00:16:12.283Z,101588.41
2023-05-07T00:18:41.897Z,101590.69
2023-05-07T00:21:10.241Z,101590.69
2023-05-07T00:23:38.888Z,101585.59
2023-05-07T00:26:07.219Z,101585.97
2023-05-07T00:28:35.659Z,101577.38
2023-05-07T00:31:03.911Z,101585.94
2023-05-07T00:33:32.131Z,101581.25
2023-05-07T00:36:02.976Z,101578.06
2023-05-07T00:38:31.350Z,101585.06
2023-05-07T00:40:59.526Z,101578.06
2023-05-07T00:43:28.508Z,101569.44
2023-05-07T00:45:56.880Z,101566.72
2023-05-07T00:48:25.443Z,101569.44
2023-05-07T00:50:54.014Z,101569.44
2023-05-07T00:53:23.626Z,101561.25
2023-05-07T00:55:51.999Z,101547.63
2023-05-07T00:58:20.820Z,101557.72
2023-05-07T01:00:49.075Z,101559.31
2023-05-07T01:03:17.369Z,101558.53
2023-05-07T01:05:48.084Z,101558.53
2023-05-07T01:08:18.877Z,101561.25
2023-05-07T01:10:49.059Z,101556.16
2023-05-07T01:13:18.207Z,101563.53
2023-05-07T01:15:46.526Z,101559.66
2023-05-07T01:18:16.011Z,101568.63
2023-05-07T01:20:44.737Z,101564.00
2023-05-07T01:23:14.664Z,101571.03
2023-05-07T01:25:42.947Z,101562.84
2023-05-07T01:28:11.149Z,101562.84
2023-05-07T01:30:51.570Z,101561.69
2023-05-07T01:33:23.580Z,101567.13
2023-05-07T01:35:55.363Z,101566.34
2023-05-07T01:38:25.875Z,101558.94
2023-05-07T01:40:55.347Z,101560.44
2023-05-07T01:43:23.587Z,101549.19
2023-05-07T01:45:52.460Z,101542.94
2023-05-07T01:48:21.436Z,101555.81
2023-05-07T01:50:50.984Z,101542.47
2023-05-07T01:53:19.221Z,101538.22
2023-05-07T01:55:48.748Z,101538.59
2023-05-07T01:58:17.001Z,101540.53
2023-05-07T02:00:45.205Z,101538.97
2023-05-07T02:03:13.504Z,101530.34
2023-05-07T02:05:41.804Z,101526.06
2023-05-07T02:08:10.029Z,101520.97
2023-05-07T02:10:38.364Z,101523.28
2023-05-07T02:13:08.123Z,101525.59
2023-05-07T02:15:36.369Z,101533.38
2023-05-07T02:18:07.306Z,101531.81
2023-05-07T02:20:35.890Z,101536.88
2023-05-07T02:23:04.214Z,101530.56
2023-05-07T02:25:32.624Z,101528.56
2023-05-07T02:28:00.932Z,101532.03
2023-05-07T02:30:31.390Z,101530.03
2023-05-07T02:32:59.571Z,101531.56
2023-05-07T02:35:27.944Z,101530.38
2023-05-07T02:37:56.245Z,101534.59
2023-05-07T02:40:24.788Z,101536.16
2023-05-07T02:42:52.990Z,101524.41
2023-05-07T02:45:21.196Z,101536.84
2023-05-07T02:47:50.818Z,101539.53
2023-05-07T02:50:19.133Z,101537.53
2023-05-07T02:52:48.282Z,101544.56
2023-05-07T02:55:16.646Z,101548.06
2023-05-07T02:57:44.850Z,101547.69
2023-05-07T03:00:15.481Z,101544.56
2023-05-07T03:02:44.127Z,101548.50
2023-05-07T03:05:15.308Z,101549.25
2023-05-07T03:07:46.192Z,101553.16
2023-05-07T03:10:14.474Z,101553.53
2023-05-07T03:12:42.770Z,101549.22
2023-05-07T03:15:13.703Z,101550.00
2023-05-07T03:17:41.876Z,101551.59
2023-05-07T03:20:12.202Z,101545.72
2023-05-07T03:22:42.229Z,101539.88
2023-05-07T03:25:11.952Z,101542.25
2023-05-07T03:27:40.315Z,101540.69
2023-05-07T03:30:10.843Z,101537.94
2023-05-07T03:32:39.395Z,101530.56
2023-05-07T03:35:08.390Z,101530.94
2023-05-07T03:37:36.707Z,101533.66
2023-05-07T03:40:08.933Z,101523.91
2023-05-07T03:42:37.342Z,101528.19
2023-05-07T03:45:07.065Z,101535.22
2023-05-07T03:47:35.270Z,101527.03
2023-05-07T03:50:03.445Z,101525.88
2023-05-07T03:52:31.809Z,101525.09
2023-05-07T03:55:00.044Z,101529.75
2023-05-07T03:57:29.565Z,101525.88
2023-05-07T03:59:57.727Z,101542.25
2023-05-07T04:02:26.267Z,101541.47
2023-05-07T04:04:55.135Z,101535.22
2023-05-07T04:07:24.356Z,101543.41
2023-05-07T04:09:52.606Z,101537.94
2023-05-07T04:12:20.847Z,101541.47
2023-05-07T04:14:50.413Z,101540.69
2023-05-07T04:17:18.606Z,101544.97
2023-05-07T04:19:46.935Z,101547.69
2023-05-07T04:22:15.137Z,101546.91
2023-05-07T04:24:43.278Z,101543.03
2023-05-07T04:27:11.832Z,101551.22
2023-05-07T04:29:43.172Z,101546.50
2023-05-07T04:32:13.738Z,101551.97
2023-05-07T04:34:42.003Z,101550.84
2023-05-07T04:37:10.551Z,101543.78
2023-05-07T04:39:38.875Z,101553.56
2023-05-07T04:42:08.662Z,101553.56
2023-05-07T04:44:38.045Z,101554.38
2023-05-07T04:47:06.549Z,101548.53
2023-05-07T04:49:36.064Z,101556.34
2023-05-07T04:52:04.465Z,101538.81
2023-05-07T04:54:32.699Z,101545.84
2023-05-07T04:57:00.862Z,101551.75
2023-05-07T04:59:29.092Z,101548.22
2023-05-07T05:01:57.425Z,101547.06
2023-05-07T05:04:25.633Z,101548.63
2023-05-07T05:06:55.185Z,101556.44
2023-05-07T05:09:23.644Z,101568.56
2023-05-07T05:11:51.941Z,101558.06
2023-05-07T05:14:20.128Z,101563.94
2023-05-07T05:16:48.294Z,101557.75
2023-05-07T05:19:16.570Z,101562.81
2023-05-07T05:21:44.834Z,101551.13
2023-05-07T05:24:14.389Z,101554.72
2023-05-07T05:26:42.559Z,101553.56
2023-05-07T05:29:11.345Z,101557.50
2023-05-07T05:31:39.662Z,101571.63
2023-05-07T05:34:07.892Z,101568.94
2023-05-07T05:36:36.070Z,101572.06
2023-05-07T05:39:04.308Z,101575.66
2023-05-07T05:41:33.931Z,101570.22
2023-05-07T05:44:02.129Z,101569.88
2023-05-07T05:46:30.364Z,101575.72
2023-05-07T05:48:58.694Z,101581.63
2023-05-07T05:51:27.489Z,101581.63
2023-05-07T05:53:55.762Z,101587.50
2023-05-07T05:56:24.034Z,101593.75
2023-05-07T05:58:53.800Z,101583.66
2023-05-07T06:01:22.218Z,101589.13
2023-05-07T06:03:50.475Z,101587.63
2023-05-07T06:06:18.817Z,101588.78
2023-05-07T06:08:46.985Z,101585.31
2023-05-07T06:11:15.211Z,101590.81
2023-05-07T06:13:43.423Z,101594.72
2023-05-07T06:16:13.086Z,101597.91
2023-05-07T06:18:41.382Z,101598.69
2023-05-07T06:21:09.845Z,101600.63
2023-05-07T06:23:38.063Z,101592.78
2023-05-07T06:26:06.476Z,101593.22
2023-05-07T06:28:36.824Z,101594.41
2023-05-07T06:31:18.621Z,101595.25
2023-05-07T06:33:47.410Z,101587.88
2023-05-07T06:36:15.730Z,101593.00
2023-05-07T06:38:44.082Z,101587.19
2023-05-07T06:41:12.298Z,101588.41
2023-05-07T06:43:40.524Z,101595.84
2023-05-07T06:46:09.584Z,101591.97
2023-05-07T06:48:39.240Z,101596.31
2023-05-07T06:51:07.548Z,101606.16
2023-05-07T06:53:36.544Z,101606.19
2023-05-07T06:56:04.932Z,101603.88
2023-05-07T06:58:33.142Z,101603.47
2023-05-07T07:01:01.414Z,101604.25
2023-05-07T07:03:29.706Z,101614.44
2023-05-07T07:05:59.292Z,101610.97
2023-05-07T07:08:27.485Z,101614.09
2023-05-07T07:10:55.795Z,101607.91
2023-05-07T07:13:24.054Z,101616.59
2023-05-07T07:15:53.933Z,101623.31
2023-05-07T07:18:22.383Z,101606.13
2023-05-07T07:20:50.870Z,101609.72
2023-05-07T07:23:22.521Z,101617.94
2023-05-07T07:25:50.744Z,101611.34
2023-05-07T07:28:19.413Z,101621.94
2023-05-07T07:30:47.907Z,101629.00
2023-05-07T07:33:16.175Z,101631.75
2023-05-07T07:35:45.207Z,101630.22
2023-05-07T07:38:13.449Z,101625.53
2023-05-07T07:40:44.842Z,101638.84
2023-05-07T07:43:13.008Z,101640.06
2023-05-07T07:45:42.031Z,101635.03
2023-05-07T07:48:10.339Z,101631.94
2023-05-07T07:50:45.060Z,101628.00
2023-05-07T07:53:13.763Z,101627.25
2023-05-07T07:55:43.349Z,101637.09
2023-05-07T07:58:14.314Z,101626.91
2023-05-07T08:00:42.563Z,101646.88
2023-05-07T08:03:12.602Z,101639.09
2023-05-07T08:05:41.083Z,101637.94
2023-05-07T08:08:09.884Z,101627.34
2023-05-07T08:10:40.188Z,101642.25
2023-05-07T08:13:09.956Z,101634.44
2023-05-07T08:15:38.275Z,101636.03
2023-05-07T08:18:06.796Z,101642.34
2023-05-07T08:20:40.232Z,101639.59
2023-05-07T08:23:08.785Z,101639.97
2023-05-07T08:25:37.287Z,101638.84
2023-05-07T08:28:07.201Z,101635.31
2023-05-07T08:30:38.736Z,101634.53
2023-05-07T08:33:07.076Z,101644.72
2023-05-07T08:35:35.453Z,101640.03
2023-05-07T08:38:03.688Z,101641.19
2023-05-07T08:40:37.574Z,101643.09
2023-05-07T08:43:08.110Z,101636.84
2023-05-07T08:45:40.380Z,101634.44
2023-05-07T08:48:19.364Z,101643.84
2023-05-07T08:50:47.969Z,101637.94
2023-05-07T08:53:17.110Z,101644.53
2023-05-07T08:55:45.316Z,101642.13
2023-05-07T08:58:13.525Z,101642.09
2023-05-07T09:00:44.917Z,101634.22
2023-05-07T09:03:13.902Z,101634.16
2023-05-07T09:05:42.371Z,101631.41
2023-05-07T09:08:10.769Z,101641.59
2023-05-07T09:10:38.965Z,101649.00
2023-05-07T09:13:07.158Z,101636.75
2023-05-07T09:15:35.402Z,101637.50
2023-05-07T09:18:05.291Z,101644.88
2023-05-07T09:20:33.877Z,101642.88
2023-05-07T09:23:02.117Z,101640.13
2023-05-07T09:25:31.294Z,101638.56
2023-05-07T09:27:59.850Z,101643.69
2023-05-07T09:30:31.039Z,101637.81
2023-05-07T09:33:00.235Z,101640.16
2023-05-07T09:35:30.337Z,101632.69
2023-05-07T09:38:03.661Z,101632.28
2023-05-07T09:40:33.509Z,101637.78
2023-05-07T09:43:13.646Z,101634.19
2023-05-07T09:45:43.706Z,101632.13
2023-05-07T09:48:12.801Z,101634.06
2023-05-07T09:50:51.129Z,101639.13
2023-05-07T09:53:20.717Z,101646.13
2023-05-07T09:55:49.416Z,101631.88
2023-05-07T09:58:18.568Z,101632.97
2023-05-07T10:00:47.679Z,101634.03
2023-05-07T10:03:16.797Z,101632.03
2023-05-07T10:05:48.457Z,101642.59
2023-05-07T10:08:17.949Z,101634.69
2023-05-07T10:10:47.340Z,101639.47
2023-05-07T10:13:15.848Z,101638.38
2023-05-07T10:15:44.682Z,101633.75
2023-05-07T10:18:14.551Z,101632.66
2023-05-07T10:20:48.050Z,101641.38
2023-05-07T10:23:21.864Z,101634.38
2023-05-07T10:25:51.565Z,101638.41
2023-05-07T10:28:21.915Z,101643.16
2023-05-07T10:31:03.592Z,101635.25
2023-05-07T10:33:34.296Z,101634.47
2023-05-07T10:36:05.474Z,101629.75
2023-05-07T10:38:34.006Z,101627.78
2023-05-07T10:41:02.343Z,101639.13
2023-05-07T10:43:42.907Z,101641.09
2023-05-07T10:46:17.712Z,101644.97
2023-05-07T10:49:13.950Z,101641.38
2023-05-07T10:51:43.586Z,101645.25
2023-05-07T10:54:28.197Z,101635.38
2023-05-07T10:56:56.579Z,101639.66
2023-05-07T10:59:43.222Z,101642.69
2023-05-07T11:02:15.211Z,101641.78
2023-05-07T11:04:43.743Z,101630.69
2023-05-07T11:07:31.980Z,101629.03
2023-05-07T11:10:06.680Z,101646.22
2023-05-07T11:12:57.160Z,101635.38
2023-05-07T11:15:44.383Z,101641.63
2023-05-07T11:18:14.676Z,101629.78
2023-05-07T11:20:57.904Z,101638.16
2023-05-07T11:24:02.549Z,101636.19
2023-05-07T11:26:33.661Z,101630.38
2023-05-07T11:29:02.746Z,101635.19
2023-05-07T11:31:31.133Z,101635.63
2023-05-07T11:34:00.162Z,101638.38
2023-05-07T11:36:33.821Z,101632.94
2023-05-07T11:39:04.835Z,101637.28
2023-05-07T11:41:37.769Z,101636.09
2023-05-07T11:44:06.323Z,101638.47
2023-05-07T11:46:35.855Z,101635.34
2023-05-07T11:49:04.327Z,101636.13
2023-05-07T11:51:34.242Z,101635.34
2023-05-07T11:54:09.635Z,101642.06
2023-05-07T11:56:39.343Z,101642.88
2023-05-07T11:59:07.916Z,101642.84
2023-05-07T12:01:38.204Z,101648.69
2023-05-07T12:04:07.379Z,101651.38
2023-05-07T12:06:40.015Z,101656.88
2023-05-07T12:09:12.528Z,101650.50
2023-05-07T12:11:41.767Z,101646.47
2023-05-07T12:14:12.116Z,101646.09
2023-05-07T12:16:42.172Z,101653.59
2023-05-07T12:19:15.708Z,101657.22
2023-05-07T12:21:44.417Z,101653.00
2023-05-07T12:24:14.100Z,101646.38
2023-05-07T12:26:43.050Z,101644.84
2023-05-07T12:29:11.297Z,101654.28
2023-05-07T12:31:43.232Z,101640.09
2023-05-07T12:34:13.494Z,101651.53
2023-05-07T12:36:42.754Z,101650.78
2023-05-07T12:39:12.934Z,101655.53
2023-05-07T12:41:56.700Z,101655.22
2023-05-07T12:44:25.631Z,101655.25
2023-05-07T12:46:54.395Z,101653.34
2023-05-07T12:49:25.149Z,101658.44
2023-05-07T12:51:54.103Z,101658.06
2023-05-07T12:54:34.129Z,101673.06
2023-05-07T12:57:07.553Z,101664.84
2023-05-07T12:59:37.093Z,101671.97
2023-05-07T13:02:06.319Z,101679.06
2023-05-07T13:04:34.979Z,101681.88
2023-05-07T13:07:03.672Z,101677.13
2023-05-07T13:09:33.658Z,101678.34
2023-05-07T13:12:02.594Z,101676.00
2023-05-07T13:14:30.876Z,101672.09
2023-05-07T13:16:59.106Z,101675.66
2023-05-07T13:19:29.042Z,101671.34
2023-05-07T13:21:57.919Z,101675.28
2023-05-07T13:24:26.389Z,101678.06
2023-05-07T13:26:56.049Z,101676.88
2023-05-07T13:29:29.596Z,101680.75
2023-05-07T13:31:58.788Z,101692.16
2023-05-07T13:34:27.365Z,101686.31
2023-05-07T13:36:56.189Z,101686.66
2023-05-07T13:39:24.494Z,101692.19
2023-05-07T13:41:52.776Z,101694.19
2023-05-07T13:44:22.484Z,101699.72
2023-05-07T13:46:51.121Z,101694.25
2023-05-07T13:49:19.353Z,101694.28
2023-05-07T13:51:47.544Z,101699.78
2023-05-07T13:54:16.853Z,101697.44
2023-05-07T13:56:45.018Z,101697.09
2023-05-07T13:59:15.278Z,101701.38
2023-05-07T14:01:44.996Z,101703.78
2023-05-07T14:04:13.304Z,101704.56
2023-05-07T14:06:41.542Z,101703.78
2023-05-07T14:09:09.760Z,101718.72
2023-05-07T14:11:37.953Z,101716.44
2023-05-07T14:14:06.195Z,101716.47
2023-05-07T14:16:34.618Z,101707.94
2023-05-07T14:19:04.256Z,101717.41
2023-05-07T14:21:33.016Z,101719.81
2023-05-07T14:24:01.491Z,101719.47
2023-05-07T14:26:30.273Z,101722.63
2023-05-07T14:28:59.451Z,101721.44
2023-05-07T14:31:28.063Z,101717.50
2023-05-07T14:33:58.872Z,101733.19
2023-05-07T14:36:28.568Z,101726.13
2023-05-07T14:38:56.866Z,101721.41
2023-05-07T14:41:25.498Z,101727.69
2023-05-07T14:43:53.739Z,101727.69
2023-05-07T14:46:22.369Z,101727.69
2023-05-07T14:48:50.664Z,101726.09
2023-05-07T14:51:18.970Z,101715.09
2023-05-07T14:53:48.650Z,101711.94
2023-05-07T14:56:17.867Z,101719.00
2023-05-07T14:58:46.258Z,101719.38
2023-05-07T15:01:14.617Z,101717.41
2023-05-07T15:03:43.086Z,101720.91
2023-05-07T15:06:11.516Z,101715.00
2023-05-07T15:08:39.824Z,101716.97
2023-05-07T15:11:09.410Z,101727.56
2023-05-07T15:13:37.572Z,101725.56
2023-05-07T15:16:06.237Z,101721.28
2023-05-07T15:18:34.560Z,101725.94
2023-05-07T15:21:02.813Z,101723.59
2023-05-07T15:23:31.244Z,101727.50
2023-05-07T15:26:00.216Z,101726.72
2023-05-07T15:28:29.945Z,101732.19
2023-05-07T15:30:58.170Z,101723.94
2023-05-07T15:33:26.708Z,101727.44
2023-05-07T15:35:55.005Z,101726.22
2023-05-07T15:38:23.334Z,101729.00
2023-05-07T15:40:51.530Z,101727.38
2023-05-07T15:43:19.833Z,101728.16
2023-05-07T15:45:49.596Z,101726.56
2023-05-07T15:48:17.853Z,101728.88
2023-05-07T15:50:46.097Z,101723.75
2023-05-07T15:53:14.640Z,101726.50
2023-05-07T15:55:44.381Z,101731.22
2023-05-07T15:58:12.633Z,101734.34
2023-05-07T16:00:42.242Z,101736.72
2023-05-07T16:03:11.962Z,101732.00
2023-05-07T16:05:40.322Z,101729.66
2023-05-07T16:08:08.498Z,101726.56
2023-05-07T16:10:36.754Z,101734.03
2023-05-07T16:13:04.983Z,101736.78
2023-05-07T16:15:33.239Z,101734.38
2023-05-07T16:18:01.505Z,101727.31
2023-05-07T16:20:31.628Z,101736.00
2023-05-07T16:23:00.285Z,101734.81
2023-05-07T16:25:28.792Z,101737.56
2023-05-07T16:27:57.332Z,101741.84
2023-05-07T16:30:25.784Z,101743.81
2023-05-07T16:32:54.049Z,101751.69
2023-05-07T16:35:22.474Z,101757.59
2023-05-07T16:37:52.994Z,101753.28
2023-05-07T16:40:21.288Z,101758.34
2023-05-07T16:42:49.510Z,101776.06
2023-05-07T16:45:18.731Z,101769.78
2023-05-07T16:47:47.135Z,101772.56
2023-05-07T16:50:15.683Z,101767.88
2023-05-07T16:52:43.882Z,101766.69
2023-05-07T16:55:14.017Z,101768.28
2023-05-07T16:57:42.455Z,101765.94
2023-05-07T17:00:12.329Z,101780.84
2023-05-07T17:02:40.650Z,101787.94
2023-05-07T17:05:10.359Z,101795.81
2023-05-07T17:07:38.820Z,101791.88
2023-05-07T17:10:08.676Z,101790.31
2023-05-07T17:12:38.396Z,101798.97
2023-05-07T17:15:07.912Z,101798.56
2023-05-07T17:17:36.323Z,101800.16
2023-05-07T17:20:05.890Z,101800.53
2023-05-07T17:22:34.412Z,101802.16
2023-05-07T17:25:04.271Z,101804.50
2023-05-07T17:27:34.465Z,101799.03
2023-05-07T17:30:04.402Z,101808.88
2023-05-07T17:32:34.836Z,101808.88
2023-05-07T17:35:03.579Z,101813.19
2023-05-07T17:37:31.837Z,101807.72
2023-05-07T17:40:00.512Z,101803.78
2023-05-07T17:42:28.738Z,101810.84
2023-05-07T17:44:56.966Z,101819.50
2023-05-07T17:47:26.559Z,101814.00
2023-05-07T17:49:54.879Z,101820.31
2023-05-07T17:52:24.118Z,101822.25
2023-05-07T17:54:52.434Z,101828.53
2023-05-07T17:57:20.661Z,101824.59
2023-05-07T17:59:49.035Z,101827.38
2023-05-07T18:02:17.244Z,101825.38
2023-05-07T18:04:47.411Z,101834.84
2023-05-07T18:07:15.725Z,101830.53
2023-05-07T18:09:43.976Z,101828.53
2023-05-07T18:12:12.234Z,101834.03
2023-05-07T18:14:40.456Z,101829.31
2023-05-07T18:17:08.703Z,101824.22
2023-05-07T18:19:36.948Z,101830.53
2023-05-07T18:22:06.602Z,101828.13
2023-05-07T18:24:34.830Z,101834.78
2023-05-07T18:27:03.153Z,101829.72
2023-05-07T18:29:31.637Z,101830.91
2023-05-07T18:31:59.936Z,101835.97
2023-05-07T18:34:28.195Z,101839.13
2023-05-07T18:36:56.475Z,101832.44
2023-05-07T18:39:26.178Z,101834.41
2023-05-07T18:41:54.506Z,101845.38
2023-05-07T18:44:22.848Z,101846.91
2023-05-07T18:46:51.146Z,101849.28
2023-05-07T18:49:19.562Z,101857.13
2023-05-07T18:51:47.881Z,101853.19
2023-05-07T18:54:16.410Z,101854.38
2023-05-07T18:56:46.991Z,101857.88
2023-05-07T18:59:15.580Z,101862.97
2023-05-07T19:01:44.293Z,101862.56
2023-05-07T19:04:12.624Z,101862.56
2023-05-07T19:06:40.891Z,101861.75
2023-05-07T19:09:09.199Z,101859.41
2023-05-07T19:11:37.451Z,101868.03
2023-05-07T19:14:10.135Z,101853.09
2023-05-07T19:16:38.829Z,101855.47
2023-05-07T19:19:07.213Z,101863.28
2023-05-07T19:21:35.487Z,101878.56
2023-05-07T19:24:03.821Z,101873.09
2023-05-07T19:26:32.262Z,101878.13
2023-05-07T19:31:33.650Z,101880.47
2023-05-07T19:34:02.939Z,101882.06
2023-05-07T19:36:33.352Z,101880.47
2023-05-07T19:39:01.972Z,101889.88
2023-05-07T19:41:31.424Z,101887.50
2023-05-07T19:44:03.846Z,101893.38
2023-05-07T19:46:33.516Z,101898.06
2023-05-07T19:49:02.302Z,101908.63
2023-05-07T19:51:32.490Z,101903.53
2023-05-07T19:54:02.547Z,101913.31
2023-05-07T19:56:31.460Z,101914.84
2023-05-07T19:59:03.525Z,101918.75
2023-05-07T20:01:33.214Z,101916.41
2023-05-07T20:04:01.653Z,101917.59
2023-05-07T20:06:31.030Z,101918.75
2023-05-07T20:08:59.308Z,101919.09
2023-05-07T20:11:32.918Z,101916.78
2023-05-07T20:14:01.442Z,101923.44
2023-05-07T20:16:30.142Z,101924.59
2023-05-07T20:18:59.914Z,101924.59
2023-05-07T20:21:28.183Z,101925.75
2023-05-07T20:23:56.939Z,101928.09
2023-05-07T20:26:26.414Z,101929.25
2023-05-07T20:28:54.726Z,101935.13
2023-05-07T20:31:23.069Z,101934.34
2023-05-07T20:33:51.422Z,101936.69
2023-05-07T20:36:21.040Z,101928.47
2023-05-07T20:38:49.280Z,101939.78
2023-05-07T20:41:17.712Z,101934.69
2023-05-07T20:43:46.222Z,101941.34
2023-05-07T20:46:14.520Z,101948.38
2023-05-07T20:48:43.306Z,101933.47
2023-05-07T20:51:13.641Z,101938.53
2023-05-07T20:53:45.470Z,101938.16
2023-05-07T20:56:16.326Z,101938.50
2023-05-07T20:58:44.596Z,101943.22
2023-05-07T21:01:12.947Z,101942.03
2023-05-07T21:03:41.290Z,101934.53
2023-05-07T21:06:09.518Z,101934.94
2023-05-07T21:08:37.788Z,101946.66
2023-05-07T21:11:09.844Z,101943.50
2023-05-07T21:13:38.135Z,101941.53
2023-05-07T21:16:06.767Z,101942.72
2023-05-07T21:18:35.025Z,101935.22
2023-05-07T21:21:03.293Z,101943.44
2023-05-07T21:23:31.531Z,101941.09
2023-05-07T21:25:59.784Z,101943.84
2023-05-07T21:28:29.517Z,101937.16
2023-05-07T21:30:57.781Z,101935.56
2023-05-07T21:33:26.027Z,101946.50
2023-05-07T21:35:54.308Z,101937.13
2023-05-07T21:38:22.499Z,101944.56
2023-05-07T21:40:50.819Z,101932.38
2023-05-07T21:43:19.042Z,101939.00
2023-05-07T21:45:48.620Z,101931.19
2023-05-07T21:48:18.528Z,101933.88
2023-05-07T21:50:47.162Z,101934.63
2023-05-07T21:53:15.485Z,101941.66
2023-05-07T21:55:43.680Z,101943.19
2023-05-07T21:58:11.916Z,101950.19
2023-05-07T22:00:40.119Z,101946.69
2023-05-07T22:03:09.983Z,101953.31
2023-05-07T22:05:38.360Z,101948.22
2023-05-07T22:08:06.757Z,101945.06
2023-05-07T22:10:35.002Z,101957.16
2023-05-07T22:13:03.209Z,101963.03
2023-05-07T22:15:32.613Z,101964.19
2023-05-07T22:18:02.093Z,101960.28
2023-05-07T22:20:31.849Z,101961.06
2023-05-07T22:23:00.021Z,101959.81
2023-05-07T22:25:28.184Z,101969.22
2023-05-07T22:27:56.437Z,101971.19
2023-05-07T22:30:24.730Z,101964.13
2023-05-07T22:32:53.183Z,101964.84
2023-05-07T22:35:21.610Z,101966.41
2023-05-07T22:37:51.197Z,101962.44
2023-05-07T22:40:19.764Z,101971.81
2023-05-07T22:42:47.929Z,101964.78
2023-05-07T22:45:16.167Z,101963.19
2023-05-07T22:47:44.403Z,101966.31
2023-05-07T22:50:13.560Z,101967.88
2023-05-07T22:52:41.983Z,101970.22
2023-05-07T22:55:11.756Z,101972.97
2023-05-07T22:57:39.942Z,101973.31
2023-05-07T23:00:09.795Z,101973.31
2023-05-07T23:02:38.290Z,101974.09
2023-05-07T23:05:07.692Z,101970.56
2023-05-07T23:07:36.029Z,101965.47
2023-05-07T23:10:04.681Z,101963.91
2023-05-07T23:12:34.289Z,101969.75
2023-05-07T23:15:02.520Z,101961.13
2023-05-07T23:17:30.744Z,101966.19
2023-05-07T23:19:58.958Z,101957.56
2023-05-07T23:22:27.355Z,101954.38
2023-05-07T23:24:55.566Z,101949.69
2023-05-07T23:27:23.789Z,101957.91
2023-05-07T23:29:53.359Z,101963.31
2023-05-07T23:32:21.558Z,101961.41
2023-05-07T23:34:51.320Z,101970.72
2023-05-07T23:37:19.564Z,101967.56
2023-05-07T23:39:48.030Z,101962.09
2023-05-07T23:42:16.460Z,101969.94
2023-05-07T23:44:44.682Z,101968.34
2023-05-07T23:47:14.284Z,101965.94
2023-05-07T23:49:42.892Z,101966.31
2023-05-07T23:52:11.076Z,101959.66
2023-05-07T23:54:39.270Z,101967.81
2023-05-07T23:57:07.507Z,101967.41
2023-05-07T23:59:35.747Z,101965.41
